Flight Track Log - Related Links

Times and Time Zones

All times are in EDT time to prevent confusion due to time zone crossing. See the N143DE flight status page for this flight to view local times or setup timezone preferences in your user account.

Time Position Orientation Groundspeed Altitude Reporting Facility
EDT Latitude Longitude Course Direction KTS MPH feet Rate Location/Type
Tue 09:52:01 AM 25.8022 -80.2814 62° Northeast 109 125 800  Level Miami Center
Tue 09:53:03 AM 25.8219 -80.2406 62° Northeast 156 180 2,900 1,858 Climbing Miami Center
Tue 09:53:54 AM 25.8414 -80.2111 54° Northeast 154 177 4,300 1,676 Climbing Miami Center
Tue 09:54:54 AM 25.8794 -80.1867 30° Northeast 176 203 6,000 1,667 Climbing Miami Center
Tue 09:56:00 AM 25.9397 -80.2022 347° North 201 231 7,800 1,550 Climbing Miami Center
Tue 09:56:54 AM 25.9831 -80.2219 338° Northwest 197 227 9,100 1,316 Climbing Miami Center
Tue 09:57:54 AM 26.0328 -80.2511 332° Northwest 208 239 10,300 950 Climbing Miami Center
Tue 09:58:54 AM 26.0842 -80.2828 331° Northwest 208 239 11,000 600 Climbing Miami Center
Tue 09:59:54 AM 26.1397 -80.3211 328° Northwest 222 255 11,500 500 Climbing Miami Center
Tue 10:00:54 AM 26.2014 -80.3556 352° North 236 272 12,000 500 Climbing Miami Center
Tue 10:01:54 AM 26.2672 -80.3967 331° Northwest 246 283 12,500 550 Climbing Miami Center
Tue 10:02:54 AM 26.3228 -80.4356 328° Northwest 251 289 13,100 500 Climbing Miami Center
Tue 10:03:54 AM 26.3928 -80.4747 333° Northwest 251 289 13,500 350 Climbing Miami Center
Tue 10:04:54 AM 26.4528 -80.4953 343° North 251 289 13,800 300 Climbing Miami Center
Tue 10:05:54 AM 26.5294 -80.5253 341° North 251 289 14,100 350 Climbing Miami Center
Tue 10:06:54 AM 26.5892 -80.5528 338° Northwest 256 295 14,500 350 Climbing Miami Center
Tue 10:07:54 AM 26.6636 -80.5853 339° North 256 295 14,800 350 Climbing Miami Center
Tue 10:08:54 AM 26.7256 -80.6083 342° North 256 295 15,200 450 Climbing Miami Center
Tue 10:09:54 AM 26.8003 -80.6317 344° North 251 289 15,700 450 Climbing Miami Center
Tue 10:10:54 AM 26.8664 -80.6592 340° North 251 289 16,100 350 Climbing Miami Center
Tue 10:11:54 AM 26.9261 -80.6844 339° North 251 289 16,400 350 Climbing Miami Center
Tue 10:12:54 AM 26.9922 -80.7100 341° North 251 289 16,800 350 Climbing Miami Center
Tue 10:13:54 AM 27.0667 -80.7381 341° North 251 289 17,100 150 Climbing Miami Center
Tue 10:14:54 AM 27.1347 -80.7683 338° Northwest 251 289 17,100  Level Miami Center
Tue 10:15:54 AM 27.2053 -80.7942 342° North 251 289 17,100  Level Miami Center
Tue 10:16:54 AM 27.2672 -80.8194 340° North 256 295 17,100 -50 Level Miami Center
Tue 10:17:54 AM 27.3353 -80.8500 338° Northwest 256 295 17,000 -50 Descending Miami Center
Tue 10:18:54 AM 27.4075 -80.8781 341° North 262 302 17,000  Level Miami Center
Tue 10:19:54 AM 27.4756 -80.9039 341° North 267 307 17,000  Level Miami Center
Tue 10:20:54 AM 27.5458 -80.9322 340° North 267 307 17,000  Level Miami Center
Tue 10:21:54 AM 27.6139 -80.9581 341° North 267 307 17,000  Level Miami Center
Tue 10:22:54 AM 27.6842 -80.9864 340° North 267 307 17,000  Level Miami Center
Tue 10:23:54 AM 27.7625 -81.0172 341° North 267 307 17,000  Level Miami Center
Tue 10:24:54 AM 27.8328 -81.0458 340° North 267 307 17,000  Level Miami Center
Tue 10:25:54 AM 27.9028 -81.0742 340° North 267 307 17,000  Level Miami Center
Tue 10:26:54 AM 27.9708 -81.1025 340° North 267 307 17,000  Level Miami Center
Tue 10:27:54 AM 28.0408 -81.1311 340° North 267 307 17,000  Level Miami Center
Tue 10:29:37 AM 28.1531 -81.1789 339° North 271 312 17,000  Level Jacksonville Center
Tue 10:30:37 AM 28.2264 -81.1964 348° North 271 312 17,000  Level Jacksonville Center
Tue 10:31:37 AM 28.2972 -81.1975 359° North 259 298 17,000  Level Jacksonville Center
Tue 10:32:37 AM 28.3706 -81.2011 358° North 259 298 17,000  Level Jacksonville Center
Tue 10:33:37 AM 28.4436 -81.2094 354° North 254 292 17,000  Level Jacksonville Center
Tue 10:34:37 AM 28.5147 -81.2153 356° North 254 292 17,000  Level Jacksonville Center
Tue 10:35:37 AM 28.5878 -81.2211 356° North 254 292 17,000  Level Jacksonville Center
Tue 10:36:37 AM 28.6586 -81.2200 North 254 292 17,000  Level Jacksonville Center
Tue 10:37:37 AM 28.7317 -81.2186 North 254 292 17,000  Level Jacksonville Center
Tue 10:38:37 AM 28.8047 -81.2222 358° North 254 292 17,000  Level Jacksonville Center
Tue 10:39:37 AM 28.8778 -81.2161 North 254 292 17,000  Level Jacksonville Center
Tue 10:40:37 AM 28.9486 -81.2175 359° North 254 292 17,000  Level Jacksonville Center
Tue 10:41:37 AM 29.0239 -81.2161 North 254 292 17,000  Level Jacksonville Center
Tue 10:42:37 AM 29.0969 -81.2219 356° North 254 292 17,000  Level Jacksonville Center
Tue 10:43:37 AM 29.1722 -81.2256 358° North 254 292 17,000  Level Jacksonville Center
Tue 10:44:37 AM 29.2411 -81.2361 352° North 254 292 17,000  Level Jacksonville Center
Tue 10:45:37 AM 29.3122 -81.2517 349° North 254 292 17,000  Level Jacksonville Center
Tue 10:46:37 AM 29.3856 -81.2694 348° North 259 298 17,000  Level Jacksonville Center
Tue 10:47:37 AM 29.4569 -81.2850 349° North 259 298 17,000  Level Jacksonville Center
Tue 10:48:37 AM 29.5300 -81.3028 348° North 259 298 17,000  Level Jacksonville Center
Tue 10:49:37 AM 29.6014 -81.3208 348° North 259 298 17,000  Level Jacksonville Center
Tue 10:50:37 AM 29.6725 -81.3389 348° North 259 298 17,000  Level Jacksonville Center
Tue 10:51:37 AM 29.7436 -81.3592 346° North 259 298 17,000  Level Jacksonville Center
Tue 10:52:37 AM 29.8128 -81.3772 347° North 259 298 17,000  Level Jacksonville Center
Tue 10:53:37 AM 29.8839 -81.3953 348° North 259 298 17,000  Level Jacksonville Center
Tue 10:54:37 AM 29.9572 -81.4133 348° North 259 298 17,000  Level Jacksonville Center
Tue 10:55:37 AM 30.0264 -81.4317 347° North 259 298 17,000  Level Jacksonville Center
Tue 10:56:37 AM 30.0997 -81.4497 348° North 259 298 17,000  Level Jacksonville Center
Tue 10:57:37 AM 30.1708 -81.4678 348° North 259 298 17,000  Level Jacksonville Center
Tue 10:58:37 AM 30.2422 -81.4883 346° North 259 298 17,000  Level Jacksonville Center
Tue 10:59:37 AM 30.3153 -81.5067 348° North 259 298 17,000  Level Jacksonville Center
Tue 11:00:37 AM 30.3783 -81.5442 333° Northwest 259 298 17,000  Level Jacksonville Center
Tue 11:01:37 AM 30.4353 -81.5939 323° Northwest 253 291 17,000  Level Jacksonville Center
Tue 11:02:37 AM 30.4922 -81.6439 323° Northwest 258 297 17,000  Level Jacksonville Center
Tue 11:03:37 AM 30.5489 -81.6961 322° Northwest 258 297 17,000  Level Jacksonville Center
Tue 11:04:37 AM 30.6039 -81.7461 322° Northwest 258 297 17,000  Level Jacksonville Center
Tue 11:05:37 AM 30.6606 -81.7961 323° Northwest 253 291 17,000  Level Jacksonville Center
Tue 11:06:37 AM 30.7236 -81.8533 322° Northwest 253 291 17,000  Level Jacksonville Center
Tue 11:07:37 AM 30.7806 -81.9036 323° Northwest 253 291 17,000  Level Jacksonville Center
Tue 11:08:37 AM 30.8372 -81.9539 323° Northwest 253 291 17,000  Level Jacksonville Center
Tue 11:09:37 AM 30.8919 -82.0042 322° Northwest 253 291 17,000  Level Jacksonville Center
Tue 11:10:37 AM 30.9486 -82.0519 324° Northwest 253 291 17,000  Level Jacksonville Center
Tue 11:11:37 AM 31.0033 -82.1047 320° Northwest 253 291 17,000  Level Jacksonville Center
Tue 11:12:37 AM 31.0578 -82.1531 323° Northwest 253 291 17,000  Level Jacksonville Center
Tue 11:13:37 AM 31.1122 -82.2033 322° Northwest 253 291 17,000  Level Jacksonville Center
Tue 11:14:37 AM 31.1689 -82.2539 323° Northwest 253 291 17,000 -50 Level Jacksonville Center
Tue 11:15:37 AM 31.2236 -82.3047 322° Northwest 253 291 16,900 -300 Descending Jacksonville Center
Tue 11:16:37 AM 31.2864 -82.3553 325° Northwest 258 297 16,400 -450 Descending Jacksonville Center
Tue 11:17:37 AM 31.3514 -82.3939 333° Northwest 258 297 16,000 -200 Descending Jacksonville Center
Tue 11:18:37 AM 31.4181 -82.4106 348° North 258 297 16,000  Level Jacksonville Center
Tue 11:19:37 AM 31.4831 -82.4369 341° North 258 297 16,000  Level Jacksonville Center
Tue 11:20:37 AM 31.5542 -82.4611 344° North 253 291 16,000  Level Jacksonville Center
Tue 11:21:37 AM 31.6231 -82.4875 342° North 253 291 16,000  Level Jacksonville Center
Tue 11:22:37 AM 31.6900 -82.5117 343° North 253 291 16,000  Level Jacksonville Center
Tue 11:23:37 AM 31.7589 -82.5383 342° North 253 291 16,000  Level Jacksonville Center
Tue 11:24:37 AM 31.8278 -82.5600 345° North 248 285 16,000  Level Jacksonville Center
Tue 11:25:37 AM 31.8947 -82.5867 341° North 248 285 16,000  Level Jacksonville Center
Tue 11:26:37 AM 31.9617 -82.6111 343° North 253 291 16,000  Level Jacksonville Center
Tue 11:27:37 AM 32.0283 -82.6353 343° North 253 291 16,000  Level Jacksonville Center
Tue 11:28:37 AM 32.0994 -82.6597 344° North 253 291 16,000  Level Jacksonville Center
Tue 11:29:37 AM 32.1664 -82.6864 341° North 248 285 16,000  Level Jacksonville Center
Tue 11:30:37 AM 32.2333 -82.7083 345° North 248 285 16,000  Level Jacksonville Center
Tue 11:33:18 AM 32.4269 -82.7789 343° North 259 298 16,000  Level Atlanta Center
Tue 11:34:18 AM 32.4897 -82.8028 342° North 250 288 16,000  Level Atlanta Center
Tue 11:35:18 AM 32.5525 -82.8264 342° North 259 298 16,000  Level Atlanta Center
Tue 11:36:18 AM 32.6094 -82.8700 327° Northwest 248 285 16,000  Level Atlanta Center
Tue 11:37:18 AM 32.6600 -82.9286 316° Northwest 243 280 16,000  Level Atlanta Center
Tue 11:38:18 AM 32.7233 -82.9969 318° Northwest 262 302 16,000 -250 Level Atlanta Center
Tue 11:39:18 AM 32.7778 -83.0506 320° Northwest 262 302 15,500 -800 Descending Atlanta Center
Tue 11:40:18 AM 32.8347 -83.1019 323° Northwest 262 302 14,400 -1,050 Descending Atlanta Center
Tue 11:41:18 AM 32.8936 -83.1631 319° Northwest 268 308 13,400 -950 Descending Atlanta Center
Tue 11:42:18 AM 32.9525 -83.2194 321° Northwest 268 308 12,500 -900 Descending Atlanta Center
Tue 11:43:18 AM 33.0114 -83.2858 317° Northwest 268 308 11,600 -900 Descending Atlanta Center
Tue 11:44:18 AM 33.0700 -83.3422 321° Northwest 273 314 10,700 -950 Descending Atlanta Center
Tue 11:45:18 AM 33.1267 -83.4064 317° Northwest 273 314 9,700 -900 Descending Atlanta Center
Tue 11:46:18 AM 33.1814 -83.4556 323° Northwest 268 308 8,900 -800 Descending Atlanta Center
Tue 11:47:18 AM 33.2378 -83.5147 319° Northwest 268 308 8,100 -400 Descending Atlanta Center
Tue 11:48:18 AM 33.2903 -83.5692 319° Northwest 256 295 8,100  Level Atlanta Center
Tue 11:49:18 AM 33.3386 -83.6211 318° Northwest 246 283 8,100  Level Atlanta Center
Tue 11:50:18 AM 33.3931 -83.6706 323° Northwest 241 277 8,100 -100 Level Atlanta Center
Tue 11:51:18 AM 33.4536 -83.7053 334° Northwest 236 272 7,900 -615 Descending Atlanta Center
Tue 11:53:43 AM 33.6167 -83.7667 343° North 239 275 6,000 -540 Descending Atlanta TRACON
Tue 11:54:49 AM 33.6833 -83.8000 337° Northwest 231 266 6,000  Level Atlanta TRACON
Tue 11:55:49 AM 33.7500 -83.8167 348° North 223 257 6,000  Level Atlanta TRACON
Tue 11:56:49 AM 33.8000 -83.8500 331° Northwest 217 250 6,000  Level Atlanta TRACON
Tue 11:57:49 AM 33.8500 -83.8667 345° North 218 251 6,000 -50 Level Atlanta TRACON
Tue 11:58:49 AM 33.9167 -83.9000 337° Northwest 217 250 5,900  Descending Atlanta TRACON
Tue 11:59:49 AM 33.9333 -83.9667 287° West 208 239 6,000 50 Climbing Atlanta TRACON
Tue 12:00:49 PM 33.9500 -84.0167 292° West 203 234 6,000 -211 Level Atlanta TRACON
Tue 12:01:43 PM 33.9667 -84.0833 287° West 211 243 5,600 -526 Descending Atlanta TRACON
Tue 12:02:43 PM 33.9833 -84.1500 287° West 202 232 5,000 -850 Descending Atlanta TRACON
Tue 12:03:43 PM 34.0167 -84.2167 301° West 203 234 3,900 -600 Descending Atlanta TRACON
Tue 12:04:43 PM 34.0167 -84.2667 270° West 183 211 3,800 -300 Descending Atlanta TRACON
Tue 12:05:43 PM 34.0167 -84.3333 270° West 169 194 3,300 -400 Descending Atlanta TRACON
Tue 12:06:43 PM 34.0167 -84.3833 270° West 164 189 3,000 -150 Descending Atlanta TRACON
Tue 12:07:43 PM 34.0167 -84.4333 270° West 149 171 3,000 -100 Level Atlanta TRACON
Tue 12:08:43 PM 34.0167 -84.4833 270° West 124 143 2,800 -450 Descending Atlanta TRACON
Tue 12:09:43 PM 34.0167 -84.5167 270° West 129 148 2,100 -550 Descending Atlanta TRACON
Tue 12:10:43 PM 34.0167 -84.5667 270° West 131 151 1,700 -400 Descending Atlanta TRACON
Tue 12:12:00 PM 34.0000 -84.5833 275° West  Level FlightAware Approximate
Tue 12:19:00 PM 34.0132 -84.5971 275° West  Level Estimated
Tue 12:20:00 PM 34.0132 -84.5971 275° West  Level Estimated
Tue 12:21:00 PM 34.0132 -84.5971 275° West  Level Estimated
Tue 12:22:00 PM 34.0132 -84.5971 275° West  Level Estimated

Login

Don't have an account? Register now (free) for customized features, flight alerts, and more!